Terminal Aerodrome Forecast
Issued by NWS

Home | Current Version | Previous Version | Text Only | Print | Product List | Glossary On
Versions: 1 2 3 4 5 6 7 8 9 10 11 12 13 14 15 16 17 18 19 20 21 22 23 24 25 26 27 28 29 30 31
000
FTUS45 KTWC 312330
TAFOLS
TAF
KOLS 312330Z 0100/0124 15009KT P6SM VCTS BKN070CB BKN110
      TEMPO 0100/0102 VRB20G35KT 6SM TSRA OVC070CB
     FM010200 07005KT P6SM VCSH SCT070 BKN110
     FM010500 VRB04KT P6SM SCT080 BKN150 BKN220
     FM012100 16009KT P6SM VCSH SCT070 BKN140=

USA.gov is the U.S. government's official web portal to all federal, state and local government web resources and services.